RLH6528 ZLXN-ZPPP
Flight info
| Callsign | RLH6528 |
|---|---|
| Flight time | N/A |
| Altitude | 33100 |
| Route | UPV01D/11 UPVOP W111 BIGUX B330 UBKER G212 NIXAS |
| Aircraft | B737/M-SDE2E3FGILRWXY/LB2 |
Departure
| Time | 2026-05-01 13:26 |
|---|---|
| Airport | Xining Caojiabao International Airport (ZLXN) |
Arrival
| Time | N/A |
|---|---|
| Airport | Kunming Changshui International Airport (ZPPP) |
| Time | Latitude | Longitude | Altitude | Speed | Heading |
|---|---|---|---|---|---|
| 2026-05-01 13:07 | 36.52621 | 102.04008 | 7148 ft | 0 kts | 109° |
| 2026-05-01 13:09 | 36.52624 | 102.03997 | 7158 ft | 3 kts | 111° |
| 2026-05-01 13:10 | 36.52631 | 102.03974 | 7158 ft | 3 kts | 115° |
| 2026-05-01 13:10 | 36.52640 | 102.03951 | 7158 ft | 3 kts | 118° |
| 2026-05-01 13:10 | 36.52650 | 102.03929 | 7159 ft | 3 kts | 120° |
| 2026-05-01 13:10 | 36.52660 | 102.03907 | 7158 ft | 3 kts | 120° |
| 2026-05-01 13:11 | 36.52669 | 102.03887 | 7156 ft | 2 kts | 111° |
| 2026-05-01 13:11 | 36.52671 | 102.03882 | 7156 ft | 1 kts | 109° |
| 2026-05-01 13:14 | 36.52670 | 102.03885 | 7156 ft | 1 kts | 109° |
| 2026-05-01 13:14 | 36.52667 | 102.03894 | 7156 ft | 2 kts | 109° |
| 2026-05-01 13:14 | 36.52667 | 102.03919 | 7157 ft | 3 kts | 70° |
| 2026-05-01 13:14 | 36.52692 | 102.03945 | 7162 ft | 7 kts | 22° |
| 2026-05-01 13:15 | 36.52741 | 102.03966 | 7159 ft | 8 kts | 19° |
| 2026-05-01 13:15 | 36.52797 | 102.03990 | 7159 ft | 9 kts | 15° |
| 2026-05-01 13:15 | 36.52854 | 102.03961 | 7160 ft | 9 kts | 303° |
| 2026-05-01 13:15 | 36.52877 | 102.03881 | 7160 ft | 10 kts | 290° |
| 2026-05-01 13:16 | 36.52904 | 102.03790 | 7157 ft | 12 kts | 290° |
| 2026-05-01 13:16 | 36.52932 | 102.03692 | 7157 ft | 12 kts | 289° |
| 2026-05-01 13:16 | 36.52959 | 102.03593 | 7158 ft | 13 kts | 289° |
| 2026-05-01 13:17 | 36.53056 | 102.03241 | 7159 ft | 16 kts | 289° |
| 2026-05-01 13:17 | 36.53092 | 102.03110 | 7156 ft | 16 kts | 289° |
| 2026-05-01 13:18 | 36.53170 | 102.02836 | 7163 ft | 16 kts | 288° |
| 2026-05-01 13:18 | 36.53206 | 102.02701 | 7161 ft | 17 kts | 288° |
| 2026-05-01 13:18 | 36.53245 | 102.02558 | 7160 ft | 18 kts | 289° |
| 2026-05-01 13:18 | 36.53286 | 102.02412 | 7164 ft | 18 kts | 289° |
| 2026-05-01 13:19 | 36.53328 | 102.02263 | 7162 ft | 18 kts | 289° |
| 2026-05-01 13:19 | 36.53369 | 102.02116 | 7160 ft | 18 kts | 289° |
| 2026-05-01 13:19 | 36.53482 | 102.01912 | 7162 ft | 3 kts | 18° |
| 2026-05-01 13:20 | 36.53482 | 102.01913 | 7162 ft | 0 kts | 18° |
| 2026-05-01 13:24 | 36.53484 | 102.01913 | 7156 ft | 2 kts | 18° |
| 2026-05-01 13:24 | 36.53495 | 102.01918 | 7157 ft | 2 kts | 18° |
| 2026-05-01 13:24 | 36.53509 | 102.01924 | 7161 ft | 2 kts | 18° |
| 2026-05-01 13:25 | 36.53568 | 102.01964 | 7162 ft | 8 kts | 62° |
| 2026-05-01 13:25 | 36.53556 | 102.02066 | 7161 ft | 20 kts | 108° |
| 2026-05-01 13:25 | 36.53446 | 102.02464 | 7164 ft | 79 kts | 109° |
| 2026-05-01 13:25 | 36.53206 | 102.03329 | 7164 ft | 131 kts | 109° |
| 2026-05-01 13:26 | 36.52868 | 102.04568 | 7199 ft | 168 kts | 108° |
| 2026-05-01 13:26 | 36.52485 | 102.05997 | 7603 ft | 178 kts | 108° |
| 2026-05-01 13:26 | 36.52074 | 102.07497 | 8077 ft | 189 kts | 108° |
| 2026-05-01 13:26 | 36.51641 | 102.09100 | 8492 ft | 201 kts | 108° |
| 2026-05-01 13:27 | 36.51184 | 102.10790 | 8927 ft | 211 kts | 109° |
| 2026-05-01 13:27 | 36.50702 | 102.12570 | 9383 ft | 222 kts | 108° |
| 2026-05-01 13:27 | 36.49665 | 102.16382 | 10227 ft | 246 kts | 108° |
| 2026-05-01 13:28 | 36.48507 | 102.20628 | 11249 ft | 272 kts | 108° |
| 2026-05-01 13:28 | 36.48277 | 102.23004 | 11775 ft | 286 kts | 86° |
| 2026-05-01 13:29 | 36.48899 | 102.28120 | 12896 ft | 312 kts | 80° |
| 2026-05-01 13:29 | 36.49064 | 102.33652 | 13993 ft | 328 kts | 98° |
| 2026-05-01 13:30 | 36.47730 | 102.45390 | 16303 ft | 361 kts | 97° |
| 2026-05-01 13:31 | 36.47060 | 102.51661 | 17535 ft | 371 kts | 98° |
| 2026-05-01 13:31 | 36.45945 | 102.61324 | 19300 ft | 383 kts | 98° |
| 2026-05-01 13:32 | 36.45174 | 102.67943 | 20451 ft | 391 kts | 98° |
| 2026-05-01 13:33 | 36.43973 | 102.78245 | 20767 ft | 401 kts | 98° |
| 2026-05-01 13:33 | 36.43166 | 102.85138 | 20882 ft | 415 kts | 98° |
| 2026-05-01 13:34 | 36.42165 | 102.92399 | 21712 ft | 433 kts | 101° |
| 2026-05-01 13:34 | 36.41014 | 102.99787 | 22961 ft | 439 kts | 102° |
| 2026-05-01 13:35 | 36.39863 | 103.07241 | 23994 ft | 447 kts | 102° |
| 2026-05-01 13:35 | 36.39282 | 103.11049 | 24443 ft | 451 kts | 102° |
| 2026-05-01 13:35 | 36.38111 | 103.18754 | 25352 ft | 458 kts | 102° |
| 2026-05-01 13:36 | 36.37518 | 103.22649 | 25815 ft | 461 kts | 102° |
| 2026-05-01 13:36 | 36.36920 | 103.26567 | 26269 ft | 464 kts | 103° |
| 2026-05-01 13:36 | 36.35703 | 103.34513 | 27064 ft | 473 kts | 103° |
| 2026-05-01 13:37 | 36.35085 | 103.38530 | 27463 ft | 476 kts | 103° |
| 2026-05-01 13:37 | 36.34664 | 103.41263 | 27734 ft | 478 kts | 103° |
| 2026-05-01 13:37 | 36.33831 | 103.46662 | 28226 ft | 483 kts | 104° |
| 2026-05-01 13:37 | 36.33195 | 103.50766 | 28594 ft | 487 kts | 104° |
| 2026-05-01 13:38 | 36.31895 | 103.59062 | 29298 ft | 494 kts | 104° |
| 2026-05-01 13:38 | 36.31234 | 103.63257 | 29643 ft | 497 kts | 104° |
| 2026-05-01 13:38 | 36.30567 | 103.67482 | 29982 ft | 500 kts | 105° |
| 2026-05-01 13:39 | 36.29898 | 103.71714 | 30306 ft | 502 kts | 105° |
| 2026-05-01 13:39 | 36.29224 | 103.75972 | 30696 ft | 502 kts | 105° |
| 2026-05-01 13:39 | 36.28780 | 103.78778 | 31000 ft | 501 kts | 105° |
| 2026-05-01 13:39 | 36.28110 | 103.83004 | 31489 ft | 498 kts | 105° |
| 2026-05-01 13:40 | 36.27442 | 103.87208 | 31932 ft | 497 kts | 105° |
| 2026-05-01 13:40 | 36.26772 | 103.91400 | 32319 ft | 497 kts | 106° |
| 2026-05-01 13:40 | 36.26097 | 103.95616 | 32729 ft | 496 kts | 106° |
| 2026-05-01 13:40 | 36.25426 | 103.99801 | 33150 ft | 495 kts | 106° |
| 2026-05-01 13:41 | 36.24748 | 104.04013 | 33191 ft | 500 kts | 106° |
| 2026-05-01 13:41 | 36.23394 | 104.12415 | 33198 ft | 499 kts | 106° |
| 2026-05-01 13:42 | 36.22047 | 104.20776 | 33194 ft | 494 kts | 106° |
| 2026-05-01 13:42 | 36.21203 | 104.24881 | 33178 ft | 486 kts | 118° |
| 2026-05-01 13:42 | 36.19567 | 104.28441 | 33213 ft | 470 kts | 136° |
| 2026-05-01 13:42 | 36.17294 | 104.31241 | 33213 ft | 454 kts | 151° |
| 2026-05-01 13:43 | 36.14632 | 104.33225 | 33204 ft | 442 kts | 163° |
| 2026-05-01 13:43 | 36.11779 | 104.34497 | 33196 ft | 431 kts | 175° |
| 2026-05-01 13:43 | 36.08853 | 104.34950 | 33212 ft | 421 kts | 185° |
| 2026-05-01 13:44 | 36.02994 | 104.35013 | 33192 ft | 422 kts | 187° |
| 2026-05-01 13:44 | 35.97109 | 104.35037 | 33191 ft | 424 kts | 186° |
| 2026-05-01 13:45 | 35.91188 | 104.35137 | 33204 ft | 426 kts | 186° |
| 2026-05-01 13:45 | 35.85244 | 104.35258 | 33200 ft | 427 kts | 186° |
| 2026-05-01 13:46 | 35.79332 | 104.35366 | 33193 ft | 428 kts | 186° |
| 2026-05-01 13:46 | 35.73376 | 104.35452 | 33190 ft | 428 kts | 186° |
| 2026-05-01 13:47 | 35.67410 | 104.35539 | 33186 ft | 428 kts | 186° |
| 2026-05-01 13:47 | 35.61458 | 104.35628 | 33189 ft | 428 kts | 186° |
| 2026-05-01 13:48 | 35.55500 | 104.35718 | 33191 ft | 427 kts | 186° |
| 2026-05-01 13:48 | 35.49561 | 104.35807 | 33176 ft | 426 kts | 186° |
| 2026-05-01 13:49 | 35.43629 | 104.35902 | 33179 ft | 425 kts | 186° |
| 2026-05-01 13:49 | 35.37748 | 104.35998 | 33188 ft | 425 kts | 186° |
| 2026-05-01 13:50 | 35.31830 | 104.36093 | 33165 ft | 425 kts | 186° |
| 2026-05-01 13:50 | 35.25909 | 104.36189 | 33166 ft | 425 kts | 186° |
| 2026-05-01 13:51 | 35.19990 | 104.36284 | 33159 ft | 425 kts | 186° |
| 2026-05-01 13:51 | 35.14067 | 104.36378 | 33157 ft | 425 kts | 186° |
| 2026-05-01 13:52 | 35.08154 | 104.36474 | 33165 ft | 424 kts | 186° |
| 2026-05-01 13:52 | 35.02282 | 104.36568 | 33163 ft | 424 kts | 186° |
| 2026-05-01 13:53 | 34.96378 | 104.36662 | 33158 ft | 424 kts | 186° |
| 2026-05-01 13:53 | 34.87534 | 104.36803 | 33161 ft | 424 kts | 186° |
| 2026-05-01 13:54 | 34.81630 | 104.36897 | 33148 ft | 424 kts | 186° |
| 2026-05-01 13:54 | 34.75724 | 104.36991 | 33161 ft | 424 kts | 186° |
| 2026-05-01 13:55 | 34.69824 | 104.37085 | 33154 ft | 424 kts | 186° |
| 2026-05-01 13:55 | 34.63927 | 104.37178 | 33152 ft | 423 kts | 186° |
| 2026-05-01 13:56 | 34.58026 | 104.37271 | 33155 ft | 424 kts | 186° |
| 2026-05-01 13:56 | 34.52117 | 104.37364 | 33126 ft | 424 kts | 186° |
| 2026-05-01 13:57 | 34.46259 | 104.37457 | 33140 ft | 423 kts | 186° |
| 2026-05-01 13:57 | 34.40378 | 104.37551 | 33138 ft | 423 kts | 186° |
| 2026-05-01 13:58 | 34.34480 | 104.37643 | 33123 ft | 424 kts | 186° |
| 2026-05-01 13:58 | 34.28575 | 104.37735 | 33127 ft | 424 kts | 186° |
| 2026-05-01 13:59 | 34.22672 | 104.37828 | 33118 ft | 425 kts | 186° |
| 2026-05-01 13:59 | 34.16798 | 104.37920 | 33109 ft | 424 kts | 186° |
| 2026-05-01 14:00 | 34.10905 | 104.38013 | 33100 ft | 425 kts | 186° |
| 2026-05-01 14:00 | 34.04979 | 104.38105 | 33093 ft | 425 kts | 186° |
| 2026-05-01 14:01 | 33.99077 | 104.38198 | 33084 ft | 423 kts | 186° |
| 2026-05-01 14:01 | 33.93186 | 104.38290 | 33076 ft | 423 kts | 186° |
| 2026-05-01 14:02 | 33.87308 | 104.38381 | 33081 ft | 422 kts | 186° |
| 2026-05-01 14:02 | 33.81432 | 104.38473 | 33092 ft | 423 kts | 186° |
| 2026-05-01 14:03 | 33.75526 | 104.38563 | 33069 ft | 425 kts | 186° |
| 2026-05-01 14:03 | 33.69624 | 104.38656 | 33064 ft | 423 kts | 186° |
| 2026-05-01 14:04 | 33.63736 | 104.38836 | 33076 ft | 427 kts | 180° |
| 2026-05-01 14:04 | 33.58855 | 104.40227 | 33078 ft | 440 kts | 167° |
| 2026-05-01 14:05 | 33.55140 | 104.42330 | 33072 ft | 452 kts | 157° |
| 2026-05-01 14:05 | 33.52439 | 104.44285 | 33065 ft | 453 kts | 155° |
| 2026-05-01 14:05 | 33.47077 | 104.48262 | 33064 ft | 453 kts | 156° |
| 2026-05-01 14:06 | 33.41674 | 104.52141 | 33061 ft | 451 kts | 157° |
| 2026-05-01 14:06 | 33.35958 | 104.54811 | 33060 ft | 434 kts | 174° |
| 2026-05-01 14:07 | 33.30054 | 104.55509 | 33057 ft | 424 kts | 184° |
| 2026-05-01 14:08 | 33.21226 | 104.55975 | 33056 ft | 427 kts | 184° |
| 2026-05-01 14:08 | 33.15279 | 104.56330 | 33057 ft | 429 kts | 183° |
| 2026-05-01 14:09 | 33.09291 | 104.56708 | 33048 ft | 431 kts | 183° |
| 2026-05-01 14:09 | 33.03293 | 104.57091 | 33050 ft | 432 kts | 183° |
| 2026-05-01 14:10 | 32.97283 | 104.57473 | 33064 ft | 433 kts | 182° |
| 2026-05-01 14:10 | 32.91270 | 104.57854 | 33005 ft | 431 kts | 182° |
| 2026-05-01 14:11 | 32.85322 | 104.58232 | 33043 ft | 427 kts | 182° |
| 2026-05-01 14:11 | 32.76458 | 104.58790 | 33036 ft | 426 kts | 182° |
| 2026-05-01 14:12 | 32.70540 | 104.59082 | 33038 ft | 426 kts | 183° |
| 2026-05-01 14:12 | 32.64605 | 104.59332 | 33048 ft | 428 kts | 182° |
| 2026-05-01 14:13 | 32.59602 | 104.59553 | 33050 ft | 431 kts | 182° |
| 2026-05-01 14:13 | 32.52608 | 104.59869 | 33035 ft | 434 kts | 182° |
| 2026-05-01 14:14 | 32.46563 | 104.60138 | 33028 ft | 435 kts | 182° |
| 2026-05-01 14:14 | 32.40502 | 104.60409 | 33039 ft | 434 kts | 182° |
| 2026-05-01 14:15 | 32.34447 | 104.60724 | 33007 ft | 436 kts | 181° |
| 2026-05-01 14:15 | 32.28388 | 104.61064 | 33023 ft | 436 kts | 181° |
| 2026-05-01 14:16 | 32.22354 | 104.61397 | 33017 ft | 438 kts | 181° |
| 2026-05-01 14:16 | 32.16258 | 104.61730 | 33005 ft | 438 kts | 181° |
| 2026-05-01 14:17 | 32.10139 | 104.62061 | 33074 ft | 445 kts | 181° |
| 2026-05-01 14:17 | 32.07025 | 104.62228 | 33276 ft | 449 kts | 182° |
| 2026-05-01 14:17 | 32.03907 | 104.62397 | 33659 ft | 448 kts | 182° |
| 2026-05-01 14:18 | 32.00799 | 104.62568 | 34088 ft | 446 kts | 182° |
| 2026-05-01 14:18 | 31.97707 | 104.62737 | 34479 ft | 443 kts | 182° |
| 2026-05-01 14:18 | 31.94634 | 104.62904 | 34823 ft | 442 kts | 182° |
| 2026-05-01 14:18 | 31.92600 | 104.63014 | 34986 ft | 442 kts | 182° |
| 2026-05-01 14:19 | 31.85360 | 104.63402 | 34981 ft | 446 kts | 182° |
| 2026-05-01 14:19 | 31.79192 | 104.63737 | 34980 ft | 440 kts | 183° |
| 2026-05-01 14:20 | 31.70023 | 104.64139 | 34980 ft | 439 kts | 184° |
| 2026-05-01 14:21 | 31.63917 | 104.64368 | 34978 ft | 439 kts | 184° |
| 2026-05-01 14:21 | 31.57851 | 104.64603 | 34975 ft | 439 kts | 184° |
| 2026-05-01 14:22 | 31.48692 | 104.64965 | 34970 ft | 439 kts | 184° |
| 2026-05-01 14:22 | 31.42579 | 104.65208 | 34971 ft | 439 kts | 184° |
| 2026-05-01 14:23 | 31.36465 | 104.65450 | 34967 ft | 440 kts | 184° |
| 2026-05-01 14:23 | 31.30355 | 104.65692 | 34965 ft | 440 kts | 184° |
| 2026-05-01 14:24 | 31.24234 | 104.65934 | 34968 ft | 440 kts | 184° |
| 2026-05-01 14:24 | 31.18151 | 104.66174 | 34960 ft | 440 kts | 184° |
| 2026-05-01 14:25 | 31.12030 | 104.66415 | 34970 ft | 441 kts | 184° |
| 2026-05-01 14:25 | 31.06105 | 104.65566 | 34978 ft | 421 kts | 209° |
| 2026-05-01 14:26 | 31.03581 | 104.63911 | 34965 ft | 414 kts | 220° |
| 2026-05-01 14:26 | 30.99776 | 104.59036 | 34972 ft | 407 kts | 236° |
| 2026-05-01 14:27 | 30.96478 | 104.53661 | 34956 ft | 408 kts | 236° |
| 2026-05-01 14:27 | 30.93129 | 104.48305 | 34971 ft | 409 kts | 236° |
| 2026-05-01 14:28 | 30.87755 | 104.40628 | 34980 ft | 413 kts | 225° |
| 2026-05-01 14:28 | 30.83035 | 104.36749 | 34952 ft | 421 kts | 211° |
| 2026-05-01 14:29 | 30.78556 | 104.34374 | 34975 ft | 423 kts | 208° |
| 2026-05-01 14:30 | 30.67836 | 104.28867 | 34974 ft | 422 kts | 209° |
| 2026-05-01 14:31 | 30.59791 | 104.24663 | 34977 ft | 422 kts | 209° |
| 2026-05-01 14:31 | 30.54463 | 104.21797 | 34980 ft | 421 kts | 210° |
| 2026-05-01 14:32 | 30.48895 | 104.19574 | 34973 ft | 431 kts | 195° |
| 2026-05-01 14:32 | 30.42949 | 104.18664 | 34973 ft | 434 kts | 193° |
| 2026-05-01 14:33 | 30.36959 | 104.17827 | 34979 ft | 433 kts | 193° |
| 2026-05-01 14:33 | 30.30973 | 104.16960 | 34980 ft | 433 kts | 193° |
| 2026-05-01 14:34 | 30.24987 | 104.16069 | 34975 ft | 433 kts | 193° |
| 2026-05-01 14:34 | 30.19022 | 104.15176 | 34967 ft | 432 kts | 193° |
| 2026-05-01 14:35 | 30.13066 | 104.14285 | 34973 ft | 431 kts | 193° |
| 2026-05-01 14:35 | 30.07117 | 104.13396 | 34973 ft | 431 kts | 193° |
| 2026-05-01 14:36 | 30.01180 | 104.12511 | 34969 ft | 430 kts | 193° |
| 2026-05-01 14:36 | 29.95240 | 104.11626 | 34971 ft | 430 kts | 193° |
| 2026-05-01 14:37 | 29.89347 | 104.10749 | 34973 ft | 429 kts | 193° |
| 2026-05-01 14:37 | 29.83435 | 104.09871 | 34964 ft | 429 kts | 193° |
| 2026-05-01 14:38 | 29.77519 | 104.08993 | 34968 ft | 428 kts | 193° |
| 2026-05-01 14:38 | 29.71621 | 104.08119 | 34974 ft | 427 kts | 193° |
| 2026-05-01 14:39 | 29.65721 | 104.07245 | 34969 ft | 427 kts | 193° |
| 2026-05-01 14:39 | 29.59840 | 104.06375 | 34968 ft | 427 kts | 193° |
| 2026-05-01 14:40 | 29.53943 | 104.05504 | 34971 ft | 426 kts | 193° |
| 2026-05-01 14:40 | 29.48052 | 104.04634 | 34965 ft | 426 kts | 193° |
| 2026-05-01 14:41 | 29.42165 | 104.03767 | 34972 ft | 426 kts | 193° |
| 2026-05-01 14:41 | 29.36226 | 104.03253 | 34977 ft | 432 kts | 186° |
| 2026-05-01 14:42 | 29.30205 | 104.03369 | 34969 ft | 433 kts | 185° |
| 2026-05-01 14:42 | 29.24222 | 104.03502 | 34973 ft | 433 kts | 186° |
| 2026-05-01 14:43 | 29.18194 | 104.03609 | 34974 ft | 432 kts | 186° |
| 2026-05-01 14:43 | 29.12180 | 104.03700 | 34978 ft | 432 kts | 186° |
| 2026-05-01 14:44 | 29.06157 | 104.03787 | 34979 ft | 432 kts | 186° |
| 2026-05-01 14:44 | 28.97120 | 104.03919 | 34909 ft | 435 kts | 186° |
| 2026-05-01 14:45 | 28.94084 | 104.03963 | 34652 ft | 435 kts | 186° |
| 2026-05-01 14:45 | 28.88080 | 104.04052 | 34195 ft | 436 kts | 186° |
| 2026-05-01 14:45 | 28.85033 | 104.04097 | 33972 ft | 438 kts | 186° |
| 2026-05-01 14:46 | 28.81966 | 104.04140 | 33722 ft | 440 kts | 186° |
| 2026-05-01 14:46 | 28.75809 | 104.04231 | 33212 ft | 443 kts | 185° |
| 2026-05-01 14:46 | 28.72721 | 104.04277 | 32956 ft | 444 kts | 185° |
| 2026-05-01 14:47 | 28.69636 | 104.04323 | 32704 ft | 444 kts | 185° |
| 2026-05-01 14:47 | 28.66544 | 104.04369 | 32455 ft | 445 kts | 185° |
| 2026-05-01 14:47 | 28.63448 | 104.04414 | 32208 ft | 444 kts | 186° |
| 2026-05-01 14:48 | 28.57454 | 104.03541 | 31721 ft | 428 kts | 202° |
| 2026-05-01 14:48 | 28.54738 | 104.02413 | 31473 ft | 421 kts | 210° |
| 2026-05-01 14:48 | 28.49746 | 103.99096 | 30999 ft | 410 kts | 217° |
| 2026-05-01 14:49 | 28.44963 | 103.95648 | 30493 ft | 403 kts | 217° |
| 2026-05-01 14:49 | 28.40231 | 103.92265 | 30048 ft | 399 kts | 217° |
| 2026-05-01 14:50 | 28.36321 | 103.89497 | 29627 ft | 398 kts | 217° |
| 2026-05-01 14:50 | 28.30804 | 103.85609 | 29037 ft | 400 kts | 216° |
| 2026-05-01 14:51 | 28.28441 | 103.83947 | 28744 ft | 399 kts | 216° |
| 2026-05-01 14:51 | 28.23729 | 103.80640 | 28211 ft | 396 kts | 216° |
| 2026-05-01 14:52 | 28.19089 | 103.77385 | 27718 ft | 394 kts | 216° |
| 2026-05-01 14:52 | 28.16770 | 103.75759 | 27546 ft | 390 kts | 216° |
| 2026-05-01 14:52 | 28.12163 | 103.72532 | 27504 ft | 387 kts | 216° |
| 2026-05-01 14:53 | 28.09873 | 103.70928 | 27479 ft | 388 kts | 216° |
| 2026-05-01 14:53 | 28.07577 | 103.69321 | 27485 ft | 388 kts | 216° |
| 2026-05-01 14:53 | 28.05283 | 103.67716 | 27473 ft | 388 kts | 217° |
| 2026-05-01 14:53 | 28.02981 | 103.66107 | 27468 ft | 387 kts | 216° |
| 2026-05-01 14:54 | 28.00687 | 103.64504 | 27485 ft | 387 kts | 216° |
| 2026-05-01 14:54 | 27.98393 | 103.62901 | 27481 ft | 388 kts | 216° |
| 2026-05-01 14:54 | 27.96096 | 103.61297 | 27486 ft | 388 kts | 216° |
| 2026-05-01 14:54 | 27.93793 | 103.59691 | 27481 ft | 389 kts | 216° |
| 2026-05-01 14:55 | 27.91488 | 103.58084 | 27476 ft | 389 kts | 216° |
| 2026-05-01 14:55 | 27.89188 | 103.56481 | 27477 ft | 389 kts | 216° |
| 2026-05-01 14:55 | 27.86887 | 103.54879 | 27470 ft | 388 kts | 216° |
| 2026-05-01 14:55 | 27.84587 | 103.53277 | 27485 ft | 388 kts | 216° |
| 2026-05-01 14:56 | 27.82315 | 103.51697 | 27462 ft | 389 kts | 216° |
| 2026-05-01 14:56 | 27.80012 | 103.50095 | 27478 ft | 388 kts | 216° |
| 2026-05-01 14:56 | 27.77711 | 103.48495 | 27469 ft | 388 kts | 216° |
| 2026-05-01 14:56 | 27.75411 | 103.46897 | 27465 ft | 389 kts | 216° |
| 2026-05-01 14:57 | 27.73112 | 103.45300 | 27463 ft | 389 kts | 215° |
| 2026-05-01 14:57 | 27.68499 | 103.42100 | 27456 ft | 388 kts | 215° |
| 2026-05-01 14:57 | 27.66198 | 103.40504 | 27445 ft | 389 kts | 216° |
| 2026-05-01 14:58 | 27.63895 | 103.38908 | 27459 ft | 388 kts | 215° |
| 2026-05-01 14:58 | 27.61594 | 103.37313 | 27441 ft | 388 kts | 215° |
| 2026-05-01 14:58 | 27.59289 | 103.35718 | 27432 ft | 388 kts | 215° |
| 2026-05-01 14:58 | 27.56986 | 103.34124 | 27449 ft | 388 kts | 215° |
| 2026-05-01 14:59 | 27.54677 | 103.32527 | 27437 ft | 389 kts | 215° |
| 2026-05-01 14:59 | 27.52370 | 103.30930 | 27432 ft | 389 kts | 215° |
| 2026-05-01 14:59 | 27.50064 | 103.29336 | 27432 ft | 389 kts | 215° |
| 2026-05-01 14:59 | 27.47757 | 103.27743 | 27401 ft | 388 kts | 215° |
| 2026-05-01 15:00 | 27.43150 | 103.24900 | 26974 ft | 375 kts | 206° |
| 2026-05-01 15:00 | 27.40736 | 103.23833 | 26793 ft | 371 kts | 206° |
| 2026-05-01 15:00 | 27.38324 | 103.22787 | 26599 ft | 370 kts | 206° |
| 2026-05-01 15:01 | 27.35924 | 103.21742 | 26404 ft | 370 kts | 206° |
| 2026-05-01 15:01 | 27.33521 | 103.20688 | 26245 ft | 370 kts | 206° |
| 2026-05-01 15:01 | 27.31120 | 103.19626 | 26040 ft | 371 kts | 206° |
| 2026-05-01 15:01 | 27.28717 | 103.18561 | 25844 ft | 370 kts | 206° |
| 2026-05-01 15:02 | 27.26326 | 103.17501 | 25669 ft | 368 kts | 206° |
| 2026-05-01 15:02 | 27.25553 | 103.17158 | 25602 ft | 367 kts | 206° |
| 2026-05-01 15:02 | 27.21585 | 103.15403 | 25268 ft | 363 kts | 206° |
| 2026-05-01 15:02 | 27.19274 | 103.14384 | 25093 ft | 360 kts | 206° |
| 2026-05-01 15:03 | 27.16954 | 103.13361 | 24931 ft | 358 kts | 207° |
| 2026-05-01 15:03 | 27.14636 | 103.12338 | 24737 ft | 356 kts | 207° |
| 2026-05-01 15:03 | 27.12337 | 103.11324 | 24554 ft | 355 kts | 207° |
| 2026-05-01 15:03 | 27.10042 | 103.10312 | 24395 ft | 354 kts | 207° |
| 2026-05-01 15:04 | 27.07748 | 103.09301 | 24220 ft | 353 kts | 207° |
| 2026-05-01 15:04 | 27.05463 | 103.08294 | 24041 ft | 352 kts | 207° |
| 2026-05-01 15:04 | 27.03179 | 103.07287 | 23876 ft | 352 kts | 207° |
| 2026-05-01 15:04 | 27.00899 | 103.06283 | 23705 ft | 352 kts | 207° |
| 2026-05-01 15:05 | 26.98618 | 103.05279 | 23538 ft | 352 kts | 207° |
| 2026-05-01 15:05 | 26.96331 | 103.04273 | 23352 ft | 352 kts | 207° |
| 2026-05-01 15:05 | 26.94053 | 103.03271 | 23142 ft | 351 kts | 207° |
| 2026-05-01 15:05 | 26.91778 | 103.02271 | 22934 ft | 350 kts | 207° |
| 2026-05-01 15:06 | 26.89507 | 103.01273 | 22720 ft | 349 kts | 207° |
| 2026-05-01 15:06 | 26.87248 | 103.00280 | 22538 ft | 347 kts | 207° |
| 2026-05-01 15:06 | 26.84998 | 102.99294 | 22334 ft | 347 kts | 207° |
| 2026-05-01 15:06 | 26.82773 | 102.98317 | 22126 ft | 347 kts | 207° |
| 2026-05-01 15:07 | 26.80530 | 102.97334 | 21933 ft | 346 kts | 207° |
| 2026-05-01 15:07 | 26.78289 | 102.96351 | 21714 ft | 344 kts | 206° |
| 2026-05-01 15:07 | 26.76068 | 102.95378 | 21522 ft | 342 kts | 207° |
| 2026-05-01 15:07 | 26.73858 | 102.94411 | 21333 ft | 340 kts | 207° |
| 2026-05-01 15:08 | 26.71653 | 102.93445 | 21133 ft | 339 kts | 207° |
| 2026-05-01 15:08 | 26.69462 | 102.92486 | 20954 ft | 338 kts | 207° |
| 2026-05-01 15:08 | 26.67279 | 102.91531 | 20747 ft | 336 kts | 207° |
| 2026-05-01 15:08 | 26.65101 | 102.90577 | 20584 ft | 336 kts | 207° |
| 2026-05-01 15:09 | 26.62920 | 102.89621 | 20403 ft | 337 kts | 207° |
| 2026-05-01 15:09 | 26.60736 | 102.88662 | 20223 ft | 337 kts | 207° |
| 2026-05-01 15:09 | 26.58552 | 102.87703 | 20018 ft | 337 kts | 207° |
| 2026-05-01 15:09 | 26.56376 | 102.86750 | 19845 ft | 335 kts | 207° |
| 2026-05-01 15:10 | 26.54245 | 102.85820 | 19669 ft | 331 kts | 206° |
| 2026-05-01 15:10 | 26.50000 | 102.83965 | 19312 ft | 325 kts | 207° |
| 2026-05-01 15:10 | 26.47899 | 102.83046 | 19130 ft | 322 kts | 207° |
| 2026-05-01 15:11 | 26.45826 | 102.82139 | 18945 ft | 319 kts | 207° |
| 2026-05-01 15:11 | 26.41732 | 102.80350 | 18575 ft | 313 kts | 206° |
| 2026-05-01 15:11 | 26.39694 | 102.79460 | 18425 ft | 317 kts | 207° |
| 2026-05-01 15:12 | 26.37619 | 102.78550 | 18264 ft | 322 kts | 207° |
| 2026-05-01 15:12 | 26.33505 | 102.76755 | 17896 ft | 311 kts | 206° |
| 2026-05-01 15:12 | 26.31498 | 102.75882 | 17718 ft | 307 kts | 207° |
| 2026-05-01 15:13 | 26.25617 | 102.73319 | 17212 ft | 305 kts | 207° |
| 2026-05-01 15:14 | 26.21652 | 102.71589 | 16860 ft | 306 kts | 207° |
| 2026-05-01 15:14 | 26.19665 | 102.70725 | 16688 ft | 306 kts | 207° |
| 2026-05-01 15:14 | 26.15662 | 102.69221 | 16323 ft | 308 kts | 192° |
| 2026-05-01 15:15 | 26.11301 | 102.69701 | 16033 ft | 319 kts | 176° |
| 2026-05-01 15:15 | 26.06912 | 102.70555 | 15678 ft | 320 kts | 176° |
| 2026-05-01 15:16 | 26.02549 | 102.71382 | 15332 ft | 317 kts | 177° |
| 2026-05-01 15:16 | 25.98212 | 102.72179 | 15030 ft | 316 kts | 177° |
| 2026-05-01 15:17 | 25.94571 | 102.72842 | 14809 ft | 320 kts | 177° |
| 2026-05-01 15:18 | 25.88040 | 102.74026 | 14708 ft | 316 kts | 177° |
| 2026-05-01 15:18 | 25.85903 | 102.74568 | 14708 ft | 322 kts | 163° |
| 2026-05-01 15:19 | 25.79500 | 102.79446 | 14728 ft | 340 kts | 150° |
| 2026-05-01 15:19 | 25.76414 | 102.82249 | 14746 ft | 345 kts | 143° |
| 2026-05-01 15:19 | 25.74650 | 102.84040 | 14715 ft | 342 kts | 142° |
| 2026-05-01 15:20 | 25.71250 | 102.87515 | 14406 ft | 323 kts | 143° |
| 2026-05-01 15:20 | 25.69625 | 102.89157 | 14265 ft | 310 kts | 144° |
| 2026-05-01 15:20 | 25.68058 | 102.90728 | 14112 ft | 299 kts | 144° |
| 2026-05-01 15:21 | 25.66526 | 102.92254 | 14031 ft | 294 kts | 144° |
| 2026-05-01 15:21 | 25.65005 | 102.93762 | 13902 ft | 294 kts | 144° |
| 2026-05-01 15:21 | 25.63479 | 102.95270 | 13762 ft | 293 kts | 144° |
| 2026-05-01 15:21 | 25.61959 | 102.96772 | 13589 ft | 293 kts | 144° |
| 2026-05-01 15:22 | 25.58902 | 102.99792 | 13279 ft | 297 kts | 144° |
| 2026-05-01 15:22 | 25.57356 | 103.01319 | 13098 ft | 299 kts | 144° |
| 2026-05-01 15:22 | 25.55813 | 103.02845 | 12843 ft | 293 kts | 144° |
| 2026-05-01 15:23 | 25.54319 | 103.04325 | 12697 ft | 286 kts | 144° |
| 2026-05-01 15:23 | 25.52833 | 103.05792 | 12528 ft | 286 kts | 144° |
| 2026-05-01 15:23 | 25.51355 | 103.07249 | 12347 ft | 281 kts | 144° |
| 2026-05-01 15:23 | 25.49913 | 103.08673 | 12169 ft | 275 kts | 145° |
| 2026-05-01 15:24 | 25.48529 | 103.10119 | 11978 ft | 274 kts | 137° |
| 2026-05-01 15:24 | 25.47322 | 103.11765 | 11827 ft | 276 kts | 133° |
| 2026-05-01 15:24 | 25.46167 | 103.13430 | 11673 ft | 274 kts | 134° |
| 2026-05-01 15:24 | 25.45024 | 103.15061 | 11538 ft | 262 kts | 134° |
| 2026-05-01 15:25 | 25.43924 | 103.16609 | 11346 ft | 252 kts | 135° |
| 2026-05-01 15:25 | 25.42829 | 103.18123 | 11166 ft | 249 kts | 139° |
| 2026-05-01 15:25 | 25.41478 | 103.19082 | 10975 ft | 218 kts | 179° |
| 2026-05-01 15:25 | 25.40108 | 103.18879 | 10817 ft | 191 kts | 212° |
| 2026-05-01 15:26 | 25.38932 | 103.18247 | 10658 ft | 186 kts | 214° |
| 2026-05-01 15:26 | 25.37810 | 103.17591 | 10466 ft | 179 kts | 217° |
| 2026-05-01 15:26 | 25.36712 | 103.16910 | 10341 ft | 184 kts | 218° |
| 2026-05-01 15:26 | 25.35603 | 103.16163 | 10192 ft | 188 kts | 219° |
| 2026-05-01 15:27 | 25.34520 | 103.15339 | 10046 ft | 189 kts | 221° |
| 2026-05-01 15:27 | 25.33462 | 103.14467 | 9898 ft | 188 kts | 223° |
| 2026-05-01 15:27 | 25.32459 | 103.13612 | 9808 ft | 175 kts | 224° |
| 2026-05-01 15:28 | 25.30645 | 103.12032 | 9775 ft | 164 kts | 224° |
| 2026-05-01 15:28 | 25.29751 | 103.11248 | 9793 ft | 164 kts | 224° |
| 2026-05-01 15:28 | 25.28850 | 103.10458 | 9801 ft | 165 kts | 224° |
| 2026-05-01 15:29 | 25.27052 | 103.08877 | 9799 ft | 165 kts | 224° |
| 2026-05-01 15:29 | 25.26157 | 103.08094 | 9796 ft | 164 kts | 224° |
| 2026-05-01 15:29 | 25.24381 | 103.06541 | 9794 ft | 161 kts | 224° |
| 2026-05-01 15:30 | 25.22618 | 103.04998 | 9604 ft | 165 kts | 224° |
| 2026-05-01 15:31 | 25.19394 | 103.02179 | 8855 ft | 142 kts | 223° |
| 2026-05-01 15:31 | 25.17844 | 103.00825 | 8491 ft | 142 kts | 224° |
| 2026-05-01 15:32 | 25.16287 | 102.99461 | 8121 ft | 142 kts | 221° |
| 2026-05-01 15:32 | 25.14756 | 102.98123 | 7727 ft | 143 kts | 221° |
| 2026-05-01 15:33 | 25.12400 | 102.96051 | 7090 ft | 147 kts | 219° |
| 2026-05-01 15:34 | 25.10319 | 102.94244 | 6893 ft | 66 kts | 218° |